• Join FlightAware (Why Join?)
  • Login
  • US Flag 
05:29AM EDT


 

Airport Tracker/Info


-or-


 

Live Flight TrackerFlight Track Log ✈ CSH9416 ✈ 22-Jul-2014 ✈ ZSLG / LYG - ZSSS / SHA

Flight Track Log - Related Links

Times and Time Zones

All times are in EDT time to prevent confusion due to time zone crossing. See the CSH9416 flight status page for this flight to view local times or setup timezone preferences in your user account.

Time Position Orientation Groundspeed Altitude Reporting Facility
EDT Latitude Longitude Course Direction KTS MPH feet Rate Location/Type
11:16PM 33.6024 119.6044 148° Southeast  Level Estimated
11:17PM 33.5376 119.6525 148° Southeast  Level Estimated
11:18PM 33.4763 119.6979 148° Southeast  Level Estimated
11:19PM 33.4151 119.7433 148° Southeast  Level Estimated
11:20PM 33.3538 119.7886 148° Southeast  Level Estimated
11:21PM 33.2925 119.8338 148° Southeast  Level Estimated
11:22PM 33.2311 119.8790 148° Southeast  Level Estimated
11:23PM 33.1698 119.9241 148° Southeast  Level Estimated
11:24PM 33.1085 119.9692 148° Southeast  Level Estimated
11:25PM 33.0471 120.0142 148° Southeast  Level Estimated
11:26PM 32.9857 120.0591 148° Southeast  Level Estimated
11:27PM 32.9243 120.1040 148° Southeast  Level Estimated
11:28PM 32.8629 120.1488 148° Southeast  Level Estimated
11:29PM 32.8014 120.1935 149° Southeast  Level Estimated
11:30PM 32.7400 120.2382 149° Southeast  Level Estimated
11:31PM 32.6785 120.2828 149° Southeast  Level Estimated
11:32PM 32.6170 120.3274 149° Southeast  Level Estimated
11:33PM 32.5555 120.3719 149° Southeast  Level Estimated
11:34PM 32.4940 120.4163 149° Southeast  Level Estimated
11:35PM 32.4325 120.4607 149° Southeast  Level Estimated
11:36PM 32.3709 120.5050 149° Southeast  Level Estimated
11:37PM 32.3094 120.5493 149° Southeast  Level Estimated
11:38PM 32.2478 120.5935 149° Southeast  Level Estimated
11:39PM 32.1862 120.6376 149° Southeast  Level Estimated
11:40PM 32.1246 120.6817 149° Southeast  Level Estimated
11:41PM 32.0630 120.7257 149° Southeast  Level Estimated
11:42PM 32.0014 120.7696 149° Southeast  Level Estimated
11:43PM 31.9397 120.8135 149° Southeast  Level Estimated
11:44PM 31.8780 120.8574 149° Southeast  Level Estimated
11:45PM 31.8163 120.9011 149° Southeast  Level Estimated
11:46PM 31.7547 120.9449 149° Southeast  Level Estimated
11:47PM 31.6929 120.9885 149° Southeast  Level Estimated
11:48PM 31.6312 121.0321 149° Southeast  Level Estimated
11:49PM 31.5695 121.0757 149° Southeast  Level Estimated
11:50PM 31.5077 121.1192 149° Southeast  Level Estimated
11:51PM 31.4459 121.1626 149° Southeast  Level Estimated
11:52PM 31.3841 121.2060 149° Southeast  Level Estimated
11:53PM 31.3223 121.2493 149° Southeast  Level Estimated
11:54PM 31.2605 121.2925 149° Southeast  Level Estimated
11:55PM 31.1987 121.3357 149° Southeast  Level Estimated
11:56PM 31.1979 121.3363 149° Southeast  Level Estimated
11:57PM 31.1979 121.3363 North  Level Estimated
11:58PM 31.1979 121.3363 North  Level Estimated
11:59PM 31.1979 121.3363 North  Level Estimated
12:00AM 31.1979 121.3363 North  Level Estimated
12:01AM 31.1979 121.3363 North  Level Estimated
12:02AM 31.1979 121.3363 North  Level Estimated